sensor_id;sensor_type;location;lat;lon;timestamp;P1;durP1;ratioP1;P2;durP2;ratioP2
74510;SDS011;62991;50.040;18.400;2023-05-20T00:01:42;16.73;;;7.75;;
74510;SDS011;62991;50.040;18.400;2023-05-20T00:04:43;12.93;;;6.35;;
74510;SDS011;62991;50.040;18.400;2023-05-20T00:07:43;11.18;;;4.60;;
74510;SDS011;62991;50.040;18.400;2023-05-20T00:10:44;14.57;;;7.28;;
74510;SDS011;62991;50.040;18.400;2023-05-20T00:13:45;9.68;;;5.20;;
74510;SDS011;62991;50.040;18.400;2023-05-20T00:16:46;17.17;;;8.13;;
74510;SDS011;62991;50.040;18.400;2023-05-20T00:19:46;15.15;;;7.13;;
74510;SDS011;62991;50.040;18.400;2023-05-20T00:22:47;12.55;;;6.57;;
74510;SDS011;62991;50.040;18.400;2023-05-20T00:25:48;15.63;;;7.32;;
74510;SDS011;62991;50.040;18.400;2023-05-20T00:28:48;13.48;;;6.97;;
74510;SDS011;62991;50.040;18.400;2023-05-20T00:31:49;12.55;;;5.60;;
74510;SDS011;62991;50.040;18.400;2023-05-20T00:34:56;14.15;;;6.40;;
74510;SDS011;62991;50.040;18.400;2023-05-20T00:37:58;17.90;;;8.48;;
74510;SDS011;62991;50.040;18.400;2023-05-20T00:40:59;15.00;;;7.18;;
74510;SDS011;62991;50.040;18.400;2023-05-20T00:43:59;12.98;;;6.65;;
74510;SDS011;62991;50.040;18.400;2023-05-20T00:47:00;15.30;;;7.38;;
74510;SDS011;62991;50.040;18.400;2023-05-20T00:50:01;14.90;;;7.15;;
74510;SDS011;62991;50.040;18.400;2023-05-20T00:53:02;12.68;;;6.82;;
74510;SDS011;62991;50.040;18.400;2023-05-20T00:56:04;13.75;;;6.90;;
74510;SDS011;62991;50.040;18.400;2023-05-20T00:59:06;14.82;;;6.82;;
74510;SDS011;62991;50.040;18.400;2023-05-20T01:02:07;14.70;;;6.90;;
74510;SDS011;62991;50.040;18.400;2023-05-20T01:05:08;12.82;;;6.65;;
74510;SDS011;62991;50.040;18.400;2023-05-20T01:08:09;12.98;;;5.95;;
74510;SDS011;62991;50.040;18.400;2023-05-20T01:11:43;16.20;;;7.20;;
74510;SDS011;62991;50.040;18.400;2023-05-20T01:15:04;11.60;;;6.10;;
74510;SDS011;62991;50.040;18.400;2023-05-20T01:21:11;15.25;;;6.25;;
74510;SDS011;62991;50.040;18.400;2023-05-20T01:24:14;11.40;;;5.72;;
74510;SDS011;62991;50.040;18.400;2023-05-20T01:27:15;15.23;;;6.38;;
74510;SDS011;62991;50.040;18.400;2023-05-20T01:30:16;15.57;;;6.43;;
74510;SDS011;62991;50.040;18.400;2023-05-20T01:33:17;12.20;;;5.80;;
74510;SDS011;62991;50.040;18.400;2023-05-20T01:36:20;15.32;;;7.30;;
74510;SDS011;62991;50.040;18.400;2023-05-20T01:39:22;13.88;;;7.13;;
74510;SDS011;62991;50.040;18.400;2023-05-20T01:42:25;15.02;;;7.10;;
74510;SDS011;62991;50.040;18.400;2023-05-20T01:45:26;15.95;;;6.93;;
74510;SDS011;62991;50.040;18.400;2023-05-20T01:48:27;12.23;;;6.47;;
74510;SDS011;62991;50.040;18.400;2023-05-20T01:51:28;20.13;;;7.20;;
74510;SDS011;62991;50.040;18.400;2023-05-20T01:54:29;16.88;;;7.38;;
74510;SDS011;62991;50.040;18.400;2023-05-20T01:57:30;14.88;;;7.10;;
74510;SDS011;62991;50.040;18.400;2023-05-20T02:00:31;13.73;;;7.20;;
74510;SDS011;62991;50.040;18.400;2023-05-20T02:03:35;20.88;;;7.93;;
74510;SDS011;62991;50.040;18.400;2023-05-20T02:06:36;16.08;;;7.95;;
74510;SDS011;62991;50.040;18.400;2023-05-20T02:09:36;18.05;;;7.68;;
74510;SDS011;62991;50.040;18.400;2023-05-20T02:12:37;14.73;;;7.20;;
74510;SDS011;62991;50.040;18.400;2023-05-20T02:15:40;15.35;;;7.05;;
74510;SDS011;62991;50.040;18.400;2023-05-20T02:18:41;16.98;;;7.78;;
74510;SDS011;62991;50.040;18.400;2023-05-20T02:21:41;17.85;;;8.32;;
74510;SDS011;62991;50.040;18.400;2023-05-20T02:24:44;14.43;;;7.22;;
74510;SDS011;62991;50.040;18.400;2023-05-20T02:27:44;14.77;;;6.90;;
74510;SDS011;62991;50.040;18.400;2023-05-20T02:30:45;16.27;;;7.50;;
74510;SDS011;62991;50.040;18.400;2023-05-20T02:33:46;16.50;;;7.78;;
74510;SDS011;62991;50.040;18.400;2023-05-20T02:36:46;16.70;;;6.68;;
74510;SDS011;62991;50.040;18.400;2023-05-20T02:39:47;13.23;;;7.32;;
74510;SDS011;62991;50.040;18.400;2023-05-20T02:42:48;18.13;;;8.00;;
74510;SDS011;62991;50.040;18.400;2023-05-20T02:45:49;15.88;;;7.75;;
74510;SDS011;62991;50.040;18.400;2023-05-20T02:48:49;14.98;;;7.68;;
74510;SDS011;62991;50.040;18.400;2023-05-20T02:51:50;16.80;;;7.43;;
74510;SDS011;62991;50.040;18.400;2023-05-20T02:54:51;15.65;;;7.07;;
74510;SDS011;62991;50.040;18.400;2023-05-20T02:57:51;13.52;;;6.97;;
74510;SDS011;62991;50.040;18.400;2023-05-20T03:00:52;18.67;;;8.40;;
74510;SDS011;62991;50.040;18.400;2023-05-20T03:03:53;13.75;;;6.53;;
74510;SDS011;62991;50.040;18.400;2023-05-20T03:06:53;17.77;;;7.82;;
74510;SDS011;62991;50.040;18.400;2023-05-20T03:09:56;17.15;;;7.95;;
74510;SDS011;62991;50.040;18.400;2023-05-20T03:13:03;17.38;;;7.88;;
74510;SDS011;62991;50.040;18.400;2023-05-20T03:16:07;19.08;;;7.18;;
74510;SDS011;62991;50.040;18.400;2023-05-20T03:19:08;16.67;;;7.40;;
74510;SDS011;62991;50.040;18.400;2023-05-20T03:22:09;17.23;;;7.05;;
74510;SDS011;62991;50.040;18.400;2023-05-20T03:25:09;15.50;;;7.57;;
74510;SDS011;62991;50.040;18.400;2023-05-20T03:28:10;15.75;;;6.80;;
74510;SDS011;62991;50.040;18.400;2023-05-20T03:31:11;15.55;;;6.95;;
74510;SDS011;62991;50.040;18.400;2023-05-20T03:34:12;17.52;;;7.05;;
74510;SDS011;62991;50.040;18.400;2023-05-20T03:37:13;16.60;;;7.05;;
74510;SDS011;62991;50.040;18.400;2023-05-20T03:40:13;18.27;;;8.68;;
74510;SDS011;62991;50.040;18.400;2023-05-20T03:43:14;18.83;;;8.98;;
74510;SDS011;62991;50.040;18.400;2023-05-20T03:46:15;15.90;;;7.45;;
74510;SDS011;62991;50.040;18.400;2023-05-20T03:49:15;14.38;;;7.00;;
74510;SDS011;62991;50.040;18.400;2023-05-20T03:52:16;15.45;;;7.63;;
74510;SDS011;62991;50.040;18.400;2023-05-20T03:55:17;16.80;;;7.60;;
74510;SDS011;62991;50.040;18.400;2023-05-20T03:58:19;15.13;;;7.45;;
74510;SDS011;62991;50.040;18.400;2023-05-20T04:01:21;17.20;;;8.00;;
74510;SDS011;62991;50.040;18.400;2023-05-20T04:04:24;17.48;;;7.63;;
74510;SDS011;62991;50.040;18.400;2023-05-20T04:07:25;14.65;;;7.32;;
74510;SDS011;62991;50.040;18.400;2023-05-20T04:10:25;16.00;;;7.85;;
74510;SDS011;62991;50.040;18.400;2023-05-20T04:13:26;17.13;;;7.70;;
74510;SDS011;62991;50.040;18.400;2023-05-20T04:16:27;15.05;;;7.53;;
74510;SDS011;62991;50.040;18.400;2023-05-20T04:19:28;18.27;;;7.82;;
74510;SDS011;62991;50.040;18.400;2023-05-20T04:22:29;14.68;;;6.95;;
74510;SDS011;62991;50.040;18.400;2023-05-20T04:25:29;13.88;;;6.85;;
74510;SDS011;62991;50.040;18.400;2023-05-20T04:28:30;13.85;;;6.47;;
74510;SDS011;62991;50.040;18.400;2023-05-20T04:31:31;17.30;;;7.15;;
74510;SDS011;62991;50.040;18.400;2023-05-20T04:34:31;12.48;;;5.97;;
74510;SDS011;62991;50.040;18.400;2023-05-20T04:37:34;16.58;;;6.18;;
74510;SDS011;62991;50.040;18.400;2023-05-20T04:40:36;14.65;;;6.40;;
74510;SDS011;62991;50.040;18.400;2023-05-20T04:43:38;12.27;;;5.30;;
74510;SDS011;62991;50.040;18.400;2023-05-20T04:46:39;12.23;;;4.72;;
74510;SDS011;62991;50.040;18.400;2023-05-20T04:49:40;10.65;;;5.97;;
74510;SDS011;62991;50.040;18.400;2023-05-20T04:52:41;9.80;;;4.55;;
74510;SDS011;62991;50.040;18.400;2023-05-20T04:55:42;11.77;;;5.65;;
74510;SDS011;62991;50.040;18.400;2023-05-20T04:58:47;12.32;;;5.75;;
74510;SDS011;62991;50.040;18.400;2023-05-20T05:01:47;10.48;;;5.03;;
74510;SDS011;62991;50.040;18.400;2023-05-20T05:04:48;15.68;;;5.07;;
74510;SDS011;62991;50.040;18.400;2023-05-20T05:07:49;7.95;;;3.85;;
74510;SDS011;62991;50.040;18.400;2023-05-20T05:10:49;10.50;;;5.15;;
74510;SDS011;62991;50.040;18.400;2023-05-20T05:13:50;10.23;;;4.07;;
74510;SDS011;62991;50.040;18.400;2023-05-20T05:16:51;10.65;;;5.40;;
74510;SDS011;62991;50.040;18.400;2023-05-20T05:19:52;11.05;;;4.45;;
74510;SDS011;62991;50.040;18.400;2023-05-20T05:22:52;7.90;;;4.10;;
74510;SDS011;62991;50.040;18.400;2023-05-20T05:25:53;10.23;;;4.28;;
74510;SDS011;62991;50.040;18.400;2023-05-20T05:28:54;9.82;;;4.57;;
74510;SDS011;62991;50.040;18.400;2023-05-20T05:31:55;8.90;;;3.88;;
74510;SDS011;62991;50.040;18.400;2023-05-20T05:34:55;7.35;;;3.33;;
74510;SDS011;62991;50.040;18.400;2023-05-20T05:37:56;7.43;;;3.92;;
74510;SDS011;62991;50.040;18.400;2023-05-20T05:40:57;11.27;;;4.18;;
74510;SDS011;62991;50.040;18.400;2023-05-20T05:43:57;9.38;;;4.53;;
74510;SDS011;62991;50.040;18.400;2023-05-20T05:46:58;7.53;;;3.47;;
74510;SDS011;62991;50.040;18.400;2023-05-20T05:49:59;10.70;;;3.72;;
74510;SDS011;62991;50.040;18.400;2023-05-20T05:53:00;11.18;;;4.00;;
74510;SDS011;62991;50.040;18.400;2023-05-20T05:56:00;8.15;;;3.50;;
74510;SDS011;62991;50.040;18.400;2023-05-20T05:59:01;12.60;;;3.55;;
74510;SDS011;62991;50.040;18.400;2023-05-20T06:02:02;9.93;;;3.42;;
74510;SDS011;62991;50.040;18.400;2023-05-20T06:05:02;9.02;;;3.65;;
74510;SDS011;62991;50.040;18.400;2023-05-20T06:08:04;9.07;;;3.58;;
74510;SDS011;62991;50.040;18.400;2023-05-20T06:11:04;11.40;;;4.00;;
74510;SDS011;62991;50.040;18.400;2023-05-20T06:14:05;7.80;;;3.55;;
74510;SDS011;62991;50.040;18.400;2023-05-20T06:17:06;9.10;;;3.42;;
74510;SDS011;62991;50.040;18.400;2023-05-20T06:20:06;6.18;;;3.20;;
74510;SDS011;62991;50.040;18.400;2023-05-20T06:23:07;10.68;;;3.35;;
74510;SDS011;62991;50.040;18.400;2023-05-20T06:26:08;7.65;;;3.17;;
74510;SDS011;62991;50.040;18.400;2023-05-20T06:29:08;6.95;;;2.85;;
74510;SDS011;62991;50.040;18.400;2023-05-20T06:32:09;7.05;;;3.17;;
74510;SDS011;62991;50.040;18.400;2023-05-20T06:35:10;8.13;;;3.05;;
74510;SDS011;62991;50.040;18.400;2023-05-20T06:38:11;6.72;;;3.35;;
74510;SDS011;62991;50.040;18.400;2023-05-20T06:41:12;6.53;;;3.22;;
74510;SDS011;62991;50.040;18.400;2023-05-20T06:44:12;6.43;;;3.15;;
74510;SDS011;62991;50.040;18.400;2023-05-20T06:47:13;6.88;;;2.78;;
74510;SDS011;62991;50.040;18.400;2023-05-20T06:50:15;8.82;;;3.50;;
74510;SDS011;62991;50.040;18.400;2023-05-20T06:53:16;7.15;;;3.40;;
74510;SDS011;62991;50.040;18.400;2023-05-20T06:56:17;7.47;;;2.95;;
74510;SDS011;62991;50.040;18.400;2023-05-20T06:59:17;5.40;;;2.67;;
74510;SDS011;62991;50.040;18.400;2023-05-20T07:02:18;6.20;;;2.80;;
74510;SDS011;62991;50.040;18.400;2023-05-20T07:05:20;7.38;;;3.03;;
74510;SDS011;62991;50.040;18.400;2023-05-20T07:08:20;6.47;;;3.10;;
74510;SDS011;62991;50.040;18.400;2023-05-20T07:11:21;5.88;;;2.80;;
74510;SDS011;62991;50.040;18.400;2023-05-20T07:14:22;6.47;;;3.22;;
74510;SDS011;62991;50.040;18.400;2023-05-20T07:17:23;9.45;;;3.40;;
74510;SDS011;62991;50.040;18.400;2023-05-20T07:20:24;11.57;;;4.55;;
74510;SDS011;62991;50.040;18.400;2023-05-20T07:23:24;20.25;;;4.75;;
74510;SDS011;62991;50.040;18.400;2023-05-20T07:26:25;13.23;;;3.90;;
74510;SDS011;62991;50.040;18.400;2023-05-20T07:29:26;16.60;;;5.03;;
74510;SDS011;62991;50.040;18.400;2023-05-20T07:32:27;13.27;;;3.90;;
74510;SDS011;62991;50.040;18.400;2023-05-20T07:35:27;9.77;;;3.83;;
74510;SDS011;62991;50.040;18.400;2023-05-20T07:38:28;10.50;;;3.97;;
74510;SDS011;62991;50.040;18.400;2023-05-20T07:41:29;14.65;;;4.00;;
74510;SDS011;62991;50.040;18.400;2023-05-20T07:44:29;9.77;;;3.90;;
74510;SDS011;62991;50.040;18.400;2023-05-20T07:47:30;10.93;;;3.67;;
74510;SDS011;62991;50.040;18.400;2023-05-20T07:50:32;9.48;;;3.22;;
74510;SDS011;62991;50.040;18.400;2023-05-20T07:53:33;12.25;;;4.32;;
74510;SDS011;62991;50.040;18.400;2023-05-20T07:56:34;6.53;;;3.60;;
74510;SDS011;62991;50.040;18.400;2023-05-20T07:59:35;9.07;;;4.00;;
74510;SDS011;62991;50.040;18.400;2023-05-20T08:02:35;10.52;;;3.78;;
74510;SDS011;62991;50.040;18.400;2023-05-20T08:05:36;8.85;;;3.60;;
74510;SDS011;62991;50.040;18.400;2023-05-20T08:08:37;15.00;;;3.60;;
74510;SDS011;62991;50.040;18.400;2023-05-20T08:11:40;19.10;;;4.15;;
74510;SDS011;62991;50.040;18.400;2023-05-20T08:14:40;8.65;;;3.28;;
74510;SDS011;62991;50.040;18.400;2023-05-20T08:17:43;12.13;;;3.67;;
74510;SDS011;62991;50.040;18.400;2023-05-20T08:20:43;7.30;;;3.30;;
74510;SDS011;62991;50.040;18.400;2023-05-20T08:23:44;9.05;;;3.00;;
74510;SDS011;62991;50.040;18.400;2023-05-20T08:26:45;8.10;;;3.75;;
74510;SDS011;62991;50.040;18.400;2023-05-20T08:29:45;10.65;;;3.40;;
74510;SDS011;62991;50.040;18.400;2023-05-20T08:32:46;13.63;;;3.85;;
74510;SDS011;62991;50.040;18.400;2023-05-20T08:35:47;7.78;;;2.92;;
74510;SDS011;62991;50.040;18.400;2023-05-20T08:38:48;6.60;;;2.75;;
74510;SDS011;62991;50.040;18.400;2023-05-20T08:41:49;10.45;;;3.20;;
74510;SDS011;62991;50.040;18.400;2023-05-20T08:44:50;8.10;;;3.22;;
74510;SDS011;62991;50.040;18.400;2023-05-20T08:47:53;7.45;;;2.80;;
74510;SDS011;62991;50.040;18.400;2023-05-20T08:50:54;15.38;;;3.63;;
74510;SDS011;62991;50.040;18.400;2023-05-20T08:53:58;10.35;;;3.25;;
74510;SDS011;62991;50.040;18.400;2023-05-20T08:56:58;7.50;;;3.13;;
74510;SDS011;62991;50.040;18.400;2023-05-20T08:59:59;9.32;;;3.60;;
74510;SDS011;62991;50.040;18.400;2023-05-20T09:03:00;7.18;;;2.83;;
74510;SDS011;62991;50.040;18.400;2023-05-20T09:06:02;6.53;;;3.10;;
74510;SDS011;62991;50.040;18.400;2023-05-20T09:09:09;6.60;;;3.03;;
74510;SDS011;62991;50.040;18.400;2023-05-20T09:12:13;10.57;;;3.40;;
74510;SDS011;62991;50.040;18.400;2023-05-20T09:15:14;8.82;;;3.65;;
74510;SDS011;62991;50.040;18.400;2023-05-20T09:18:15;7.85;;;4.20;;
74510;SDS011;62991;50.040;18.400;2023-05-20T09:21:15;6.53;;;2.53;;
74510;SDS011;62991;50.040;18.400;2023-05-20T09:24:19;11.45;;;3.00;;
74510;SDS011;62991;50.040;18.400;2023-05-20T09:27:24;8.25;;;3.13;;
74510;SDS011;62991;50.040;18.400;2023-05-20T09:30:24;8.05;;;3.20;;
74510;SDS011;62991;50.040;18.400;2023-05-20T09:33:28;7.60;;;2.78;;
74510;SDS011;62991;50.040;18.400;2023-05-20T09:36:30;6.72;;;3.38;;
74510;SDS011;62991;50.040;18.400;2023-05-20T09:39:38;5.70;;;3.10;;
74510;SDS011;62991;50.040;18.400;2023-05-20T09:42:58;6.57;;;3.25;;
74510;SDS011;62991;50.040;18.400;2023-05-20T09:46:02;6.45;;;2.67;;
74510;SDS011;62991;50.040;18.400;2023-05-20T09:49:03;8.23;;;2.90;;
74510;SDS011;62991;50.040;18.400;2023-05-20T09:52:06;7.80;;;3.10;;
74510;SDS011;62991;50.040;18.400;2023-05-20T09:55:08;7.30;;;3.53;;
74510;SDS011;62991;50.040;18.400;2023-05-20T09:58:09;7.55;;;2.85;;
74510;SDS011;62991;50.040;18.400;2023-05-20T10:01:12;5.57;;;2.88;;
74510;SDS011;62991;50.040;18.400;2023-05-20T10:04:14;6.40;;;2.90;;
74510;SDS011;62991;50.040;18.400;2023-05-20T10:10:24;7.10;;;3.50;;
74510;SDS011;62991;50.040;18.400;2023-05-20T10:14:05;7.68;;;2.30;;
74510;SDS011;62991;50.040;18.400;2023-05-20T10:17:30;5.72;;;3.00;;
74510;SDS011;62991;50.040;18.400;2023-05-20T10:20:52;8.00;;;3.35;;
74510;SDS011;62991;50.040;18.400;2023-05-20T10:23:53;6.05;;;2.97;;
74510;SDS011;62991;50.040;18.400;2023-05-20T10:26:54;9.80;;;2.72;;
74510;SDS011;62991;50.040;18.400;2023-05-20T10:29:55;6.25;;;3.00;;
74510;SDS011;62991;50.040;18.400;2023-05-20T10:32:57;7.13;;;3.03;;
74510;SDS011;62991;50.040;18.400;2023-05-20T10:36:03;4.63;;;2.60;;
74510;SDS011;62991;50.040;18.400;2023-05-20T10:39:04;5.93;;;2.92;;
74510;SDS011;62991;50.040;18.400;2023-05-20T10:42:05;6.47;;;2.50;;
74510;SDS011;62991;50.040;18.400;2023-05-20T10:45:07;5.93;;;2.55;;
74510;SDS011;62991;50.040;18.400;2023-05-20T10:48:08;5.18;;;2.30;;
74510;SDS011;62991;50.040;18.400;2023-05-20T10:51:23;5.18;;;2.60;;
74510;SDS011;62991;50.040;18.400;2023-05-20T10:54:27;9.35;;;2.78;;
74510;SDS011;62991;50.040;18.400;2023-05-20T10:57:28;5.25;;;2.55;;
74510;SDS011;62991;50.040;18.400;2023-05-20T11:00:30;6.28;;;2.30;;
74510;SDS011;62991;50.040;18.400;2023-05-20T11:03:31;8.63;;;3.70;;
74510;SDS011;62991;50.040;18.400;2023-05-20T11:06:33;6.82;;;2.85;;
74510;SDS011;62991;50.040;18.400;2023-05-20T11:09:34;4.00;;;2.47;;
74510;SDS011;62991;50.040;18.400;2023-05-20T11:12:35;6.78;;;2.95;;
74510;SDS011;62991;50.040;18.400;2023-05-20T11:15:36;8.00;;;3.13;;
74510;SDS011;62991;50.040;18.400;2023-05-20T11:18:37;4.28;;;2.67;;
74510;SDS011;62991;50.040;18.400;2023-05-20T11:21:44;10.20;;;5.78;;
74510;SDS011;62991;50.040;18.400;2023-05-20T11:24:46;11.13;;;5.82;;
74510;SDS011;62991;50.040;18.400;2023-05-20T11:27:46;11.43;;;5.90;;
74510;SDS011;62991;50.040;18.400;2023-05-20T11:30:51;10.15;;;6.32;;
74510;SDS011;62991;50.040;18.400;2023-05-20T11:33:52;11.63;;;5.95;;
74510;SDS011;62991;50.040;18.400;2023-05-20T11:36:56;13.23;;;7.07;;
74510;SDS011;62991;50.040;18.400;2023-05-20T11:40:04;13.55;;;7.90;;
74510;SDS011;62991;50.040;18.400;2023-05-20T11:43:09;13.57;;;7.20;;
74510;SDS011;62991;50.040;18.400;2023-05-20T11:46:11;16.20;;;8.05;;
74510;SDS011;62991;50.040;18.400;2023-05-20T11:49:12;15.75;;;7.03;;
74510;SDS011;62991;50.040;18.400;2023-05-20T11:52:13;14.30;;;7.35;;
74510;SDS011;62991;50.040;18.400;2023-05-20T11:55:14;13.38;;;6.95;;
74510;SDS011;62991;50.040;18.400;2023-05-20T11:58:16;12.57;;;7.35;;
74510;SDS011;62991;50.040;18.400;2023-05-20T12:01:18;15.35;;;8.52;;
74510;SDS011;62991;50.040;18.400;2023-05-20T12:04:19;16.35;;;8.45;;
74510;SDS011;62991;50.040;18.400;2023-05-20T12:07:20;16.52;;;7.72;;
74510;SDS011;62991;50.040;18.400;2023-05-20T12:10:22;17.65;;;7.72;;
74510;SDS011;62991;50.040;18.400;2023-05-20T12:13:23;15.30;;;7.60;;
74510;SDS011;62991;50.040;18.400;2023-05-20T12:16:23;13.85;;;7.53;;
74510;SDS011;62991;50.040;18.400;2023-05-20T12:19:24;15.32;;;8.35;;
74510;SDS011;62991;50.040;18.400;2023-05-20T12:22:25;13.75;;;6.68;;
74510;SDS011;62991;50.040;18.400;2023-05-20T12:25:25;14.73;;;7.30;;
74510;SDS011;62991;50.040;18.400;2023-05-20T12:28:26;11.50;;;6.50;;
74510;SDS011;62991;50.040;18.400;2023-05-20T12:31:27;14.90;;;7.97;;
74510;SDS011;62991;50.040;18.400;2023-05-20T12:34:27;12.50;;;7.03;;
74510;SDS011;62991;50.040;18.400;2023-05-20T12:37:29;15.98;;;6.95;;
74510;SDS011;62991;50.040;18.400;2023-05-20T12:40:30;11.43;;;6.28;;
74510;SDS011;62991;50.040;18.400;2023-05-20T12:43:30;16.25;;;8.25;;
74510;SDS011;62991;50.040;18.400;2023-05-20T12:46:31;16.05;;;7.40;;
74510;SDS011;62991;50.040;18.400;2023-05-20T12:49:32;13.10;;;7.13;;
74510;SDS011;62991;50.040;18.400;2023-05-20T12:52:32;11.57;;;7.13;;
74510;SDS011;62991;50.040;18.400;2023-05-20T12:55:33;13.43;;;7.13;;
74510;SDS011;62991;50.040;18.400;2023-05-20T12:58:33;15.68;;;7.88;;
74510;SDS011;62991;50.040;18.400;2023-05-20T13:01:34;11.15;;;6.78;;
74510;SDS011;62991;50.040;18.400;2023-05-20T13:04:35;10.75;;;6.00;;
74510;SDS011;62991;50.040;18.400;2023-05-20T13:07:36;15.13;;;7.72;;
74510;SDS011;62991;50.040;18.400;2023-05-20T13:10:37;12.68;;;7.38;;
74510;SDS011;62991;50.040;18.400;2023-05-20T13:13:37;13.38;;;7.25;;
74510;SDS011;62991;50.040;18.400;2023-05-20T13:16:38;13.45;;;7.57;;
74510;SDS011;62991;50.040;18.400;2023-05-20T13:19:39;14.40;;;6.88;;
74510;SDS011;62991;50.040;18.400;2023-05-20T13:22:39;16.23;;;7.70;;
74510;SDS011;62991;50.040;18.400;2023-05-20T13:25:40;12.40;;;6.97;;
74510;SDS011;62991;50.040;18.400;2023-05-20T13:28:40;10.48;;;6.20;;
74510;SDS011;62991;50.040;18.400;2023-05-20T13:31:41;14.40;;;6.50;;
74510;SDS011;62991;50.040;18.400;2023-05-20T13:34:42;12.13;;;6.65;;
74510;SDS011;62991;50.040;18.400;2023-05-20T13:37:43;12.60;;;6.40;;
74510;SDS011;62991;50.040;18.400;2023-05-20T13:40:44;12.23;;;6.70;;
74510;SDS011;62991;50.040;18.400;2023-05-20T13:43:45;10.77;;;6.15;;
74510;SDS011;62991;50.040;18.400;2023-05-20T13:46:45;9.65;;;6.05;;
74510;SDS011;62991;50.040;18.400;2023-05-20T13:49:46;14.18;;;6.45;;
74510;SDS011;62991;50.040;18.400;2023-05-20T13:52:46;10.35;;;6.50;;
74510;SDS011;62991;50.040;18.400;2023-05-20T13:55:48;10.45;;;5.93;;
74510;SDS011;62991;50.040;18.400;2023-05-20T13:58:49;11.88;;;6.07;;
74510;SDS011;62991;50.040;18.400;2023-05-20T14:01:52;11.95;;;5.97;;
74510;SDS011;62991;50.040;18.400;2023-05-20T14:04:52;9.77;;;6.20;;
74510;SDS011;62991;50.040;18.400;2023-05-20T14:07:53;11.38;;;6.60;;
74510;SDS011;62991;50.040;18.400;2023-05-20T14:10:54;9.90;;;5.82;;
74510;SDS011;62991;50.040;18.400;2023-05-20T14:13:54;11.70;;;6.13;;
74510;SDS011;62991;50.040;18.400;2023-05-20T14:16:55;12.75;;;6.03;;
74510;SDS011;62991;50.040;18.400;2023-05-20T14:19:56;11.07;;;5.45;;
74510;SDS011;62991;50.040;18.400;2023-05-20T14:22:56;12.57;;;6.43;;
74510;SDS011;62991;50.040;18.400;2023-05-20T14:25:59;13.20;;;6.05;;
74510;SDS011;62991;50.040;18.400;2023-05-20T14:29:00;10.32;;;5.60;;
74510;SDS011;62991;50.040;18.400;2023-05-20T14:32:00;11.45;;;5.95;;
74510;SDS011;62991;50.040;18.400;2023-05-20T14:35:03;9.85;;;6.28;;
74510;SDS011;62991;50.040;18.400;2023-05-20T14:38:04;9.88;;;6.47;;
74510;SDS011;62991;50.040;18.400;2023-05-20T14:41:05;9.45;;;6.07;;
74510;SDS011;62991;50.040;18.400;2023-05-20T14:44:06;9.63;;;5.55;;
74510;SDS011;62991;50.040;18.400;2023-05-20T14:47:07;11.52;;;6.05;;
74510;SDS011;62991;50.040;18.400;2023-05-20T14:50:07;11.95;;;6.15;;
74510;SDS011;62991;50.040;18.400;2023-05-20T14:53:08;11.73;;;6.22;;
74510;SDS011;62991;50.040;18.400;2023-05-20T14:56:09;10.55;;;6.10;;
74510;SDS011;62991;50.040;18.400;2023-05-20T14:59:10;10.45;;;6.13;;
74510;SDS011;62991;50.040;18.400;2023-05-20T15:02:11;9.82;;;6.03;;
74510;SDS011;62991;50.040;18.400;2023-05-20T15:05:12;10.93;;;6.05;;
74510;SDS011;62991;50.040;18.400;2023-05-20T15:08:13;11.65;;;6.00;;
74510;SDS011;62991;50.040;18.400;2023-05-20T15:11:14;9.63;;;5.72;;
74510;SDS011;62991;50.040;18.400;2023-05-20T15:14:15;9.35;;;5.53;;
74510;SDS011;62991;50.040;18.400;2023-05-20T15:17:16;10.82;;;6.20;;
74510;SDS011;62991;50.040;18.400;2023-05-20T15:20:16;14.13;;;6.00;;
74510;SDS011;62991;50.040;18.400;2023-05-20T15:23:17;9.40;;;5.68;;
74510;SDS011;62991;50.040;18.400;2023-05-20T15:26:18;11.13;;;5.53;;
74510;SDS011;62991;50.040;18.400;2023-05-20T15:29:18;9.23;;;5.05;;
74510;SDS011;62991;50.040;18.400;2023-05-20T15:32:20;10.35;;;6.07;;
74510;SDS011;62991;50.040;18.400;2023-05-20T15:35:20;9.13;;;5.60;;
74510;SDS011;62991;50.040;18.400;2023-05-20T15:38:21;8.93;;;5.65;;
74510;SDS011;62991;50.040;18.400;2023-05-20T15:41:22;9.73;;;5.55;;
74510;SDS011;62991;50.040;18.400;2023-05-20T15:44:22;8.88;;;5.30;;
74510;SDS011;62991;50.040;18.400;2023-05-20T15:47:23;11.07;;;6.05;;
74510;SDS011;62991;50.040;18.400;2023-05-20T15:50:24;8.27;;;5.78;;
74510;SDS011;62991;50.040;18.400;2023-05-20T15:53:25;9.00;;;5.57;;
74510;SDS011;62991;50.040;18.400;2023-05-20T15:56:25;8.90;;;5.00;;
74510;SDS011;62991;50.040;18.400;2023-05-20T15:59:26;9.40;;;5.47;;
74510;SDS011;62991;50.040;18.400;2023-05-20T16:02:27;14.32;;;5.85;;
74510;SDS011;62991;50.040;18.400;2023-05-20T16:05:27;15.90;;;7.63;;
74510;SDS011;62991;50.040;18.400;2023-05-20T16:08:28;15.93;;;6.18;;
74510;SDS011;62991;50.040;18.400;2023-05-20T16:11:29;16.45;;;7.60;;
74510;SDS011;62991;50.040;18.400;2023-05-20T16:14:33;14.88;;;6.15;;
74510;SDS011;62991;50.040;18.400;2023-05-20T16:17:34;14.00;;;6.50;;
74510;SDS011;62991;50.040;18.400;2023-05-20T16:20:35;13.38;;;6.68;;
74510;SDS011;62991;50.040;18.400;2023-05-20T16:23:35;9.73;;;6.00;;
74510;SDS011;62991;50.040;18.400;2023-05-20T16:26:36;13.52;;;6.65;;
74510;SDS011;62991;50.040;18.400;2023-05-20T16:29:37;12.82;;;6.75;;
74510;SDS011;62991;50.040;18.400;2023-05-20T16:32:40;12.52;;;6.13;;
74510;SDS011;62991;50.040;18.400;2023-05-20T16:35:41;16.83;;;7.57;;
74510;SDS011;62991;50.040;18.400;2023-05-20T16:38:42;18.92;;;7.70;;
74510;SDS011;62991;50.040;18.400;2023-05-20T16:41:43;15.68;;;6.82;;
74510;SDS011;62991;50.040;18.400;2023-05-20T16:44:43;13.60;;;6.82;;
74510;SDS011;62991;50.040;18.400;2023-05-20T16:47:44;14.40;;;7.38;;
74510;SDS011;62991;50.040;18.400;2023-05-20T16:50:45;14.82;;;7.95;;
74510;SDS011;62991;50.040;18.400;2023-05-20T16:53:46;12.07;;;6.40;;
74510;SDS011;62991;50.040;18.400;2023-05-20T16:56:46;12.18;;;6.95;;
74510;SDS011;62991;50.040;18.400;2023-05-20T16:59:47;11.57;;;7.30;;
74510;SDS011;62991;50.040;18.400;2023-05-20T17:02:48;14.77;;;6.88;;
74510;SDS011;62991;50.040;18.400;2023-05-20T17:05:48;15.45;;;7.53;;
74510;SDS011;62991;50.040;18.400;2023-05-20T17:08:49;16.77;;;7.03;;
74510;SDS011;62991;50.040;18.400;2023-05-20T17:11:50;16.10;;;6.70;;
74510;SDS011;62991;50.040;18.400;2023-05-20T17:14:51;15.15;;;7.50;;
74510;SDS011;62991;50.040;18.400;2023-05-20T17:17:52;15.30;;;7.75;;
74510;SDS011;62991;50.040;18.400;2023-05-20T17:20:53;13.85;;;7.63;;
74510;SDS011;62991;50.040;18.400;2023-05-20T17:23:54;14.35;;;7.53;;
74510;SDS011;62991;50.040;18.400;2023-05-20T17:26:57;14.00;;;6.30;;
74510;SDS011;62991;50.040;18.400;2023-05-20T17:30:08;15.50;;;7.65;;
74510;SDS011;62991;50.040;18.400;2023-05-20T17:33:08;12.55;;;6.85;;
74510;SDS011;62991;50.040;18.400;2023-05-20T17:36:09;13.02;;;6.53;;
74510;SDS011;62991;50.040;18.400;2023-05-20T17:39:10;14.30;;;7.22;;
74510;SDS011;62991;50.040;18.400;2023-05-20T17:42:11;15.60;;;7.93;;
74510;SDS011;62991;50.040;18.400;2023-05-20T17:45:12;11.98;;;7.28;;
74510;SDS011;62991;50.040;18.400;2023-05-20T17:48:13;19.48;;;7.95;;
74510;SDS011;62991;50.040;18.400;2023-05-20T17:51:14;15.10;;;7.90;;
74510;SDS011;62991;50.040;18.400;2023-05-20T17:54:15;12.90;;;7.10;;